createdAt,value
2018-08-09T00:00:17.094Z,65.20
2018-08-09T00:01:16.754Z,65.59
2018-08-09T00:02:16.663Z,64.98
2018-08-09T00:03:16.574Z,65.17
2018-08-09T00:04:16.482Z,64.69
2018-08-09T00:05:16.394Z,64.69
2018-08-09T00:06:16.299Z,64.79
2018-08-09T00:07:16.210Z,64.01
2018-08-09T00:08:16.118Z,64.21
2018-08-09T00:09:16.027Z,64.59
2018-08-09T00:10:15.924Z,63.82
2018-08-09T00:11:15.834Z,64.31
2018-08-09T00:12:15.745Z,64.21
2018-08-09T00:13:15.651Z,64.11
2018-08-09T00:14:15.563Z,64.11
2018-08-09T00:15:15.470Z,64.11
2018-08-09T00:16:15.379Z,64.11
2018-08-09T00:17:15.287Z,64.31
2018-08-09T00:18:15.187Z,64.11
2018-08-09T00:19:15.095Z,63.53
2018-08-09T00:20:15.003Z,64.11
2018-08-09T00:21:14.913Z,63.92
2018-08-09T00:22:14.822Z,63.63
2018-08-09T00:23:14.731Z,63.43
2018-08-09T00:24:14.640Z,63.21
2018-08-09T00:25:14.550Z,63.21
2018-08-09T00:26:14.458Z,62.92
2018-08-09T00:27:14.357Z,62.92
2018-08-09T00:28:14.266Z,62.92
2018-08-09T00:29:14.173Z,63.40
2018-08-09T00:30:14.083Z,63.69
2018-08-09T00:31:13.991Z,62.92
2018-08-09T00:32:13.901Z,62.82
2018-08-09T00:33:13.810Z,62.63
2018-08-09T00:34:13.720Z,62.82
2018-08-09T00:35:13.629Z,62.73
2018-08-09T00:36:13.527Z,63.02
2018-08-09T00:37:13.435Z,63.08
2018-08-09T00:38:13.343Z,63.11
2018-08-09T00:39:13.254Z,63.08
2018-08-09T00:40:13.163Z,62.70
2018-08-09T00:41:13.076Z,62.89
2018-08-09T00:42:12.980Z,62.98
2018-08-09T00:43:12.890Z,62.79
2018-08-09T00:44:12.798Z,62.50
2018-08-09T00:45:12.695Z,62.40
2018-08-09T00:46:12.605Z,62.12
2018-08-09T00:47:12.514Z,62.40
2018-08-09T00:48:12.426Z,62.12
2018-08-09T00:49:12.332Z,62.40
2018-08-09T00:50:12.244Z,62.79
2018-08-09T00:51:12.151Z,62.89
2018-08-09T00:52:12.049Z,63.08
2018-08-09T00:53:11.957Z,62.98
2018-08-09T00:54:11.866Z,62.40
2018-08-09T00:55:11.776Z,62.60
2018-08-09T00:56:11.684Z,62.02
2018-08-09T00:57:11.593Z,62.40
2018-08-09T00:58:11.502Z,62.60
2018-08-09T00:59:11.412Z,64.14
2018-08-09T01:00:11.310Z,63.28
2018-08-09T01:01:11.217Z,64.72
2018-08-09T01:02:11.128Z,63.95
2018-08-09T01:03:11.036Z,65.40
2018-08-09T01:04:10.946Z,66.20
2018-08-09T01:05:10.854Z,65.24
2018-08-09T01:06:10.764Z,64.95
2018-08-09T01:07:10.672Z,65.72
2018-08-09T01:08:10.569Z,65.53
2018-08-09T01:09:10.479Z,65.82
2018-08-09T01:10:10.389Z,64.69
2018-08-09T01:11:10.298Z,66.05
2018-08-09T01:12:10.206Z,65.47
2018-08-09T01:13:10.117Z,67.21
2018-08-09T01:14:10.025Z,66.33
2018-08-09T01:15:09.921Z,66.33
2018-08-09T01:16:09.831Z,66.72
2018-08-09T01:17:09.739Z,66.24
2018-08-09T01:18:09.649Z,66.05
2018-08-09T01:19:09.558Z,66.53
2018-08-09T01:20:09.718Z,67.33
2018-08-09T01:21:09.366Z,66.47
2018-08-09T01:22:09.273Z,66.85
2018-08-09T01:23:09.183Z,66.27
2018-08-09T01:24:09.092Z,66.56
2018-08-09T01:25:09.002Z,66.75
2018-08-09T01:26:08.909Z,66.56
2018-08-09T01:27:08.819Z,66.27
2018-08-09T01:28:08.728Z,66.37
2018-08-09T01:29:08.625Z,66.27
2018-08-09T01:30:08.535Z,66.56
2018-08-09T01:31:08.443Z,66.75
2018-08-09T01:32:08.353Z,66.66
2018-08-09T01:33:08.265Z,66.85
2018-08-09T01:34:08.172Z,66.47
2018-08-09T01:35:08.081Z,66.75
2018-08-09T01:36:07.977Z,66.66
2018-08-09T01:37:07.887Z,67.05
2018-08-09T01:38:07.796Z,66.56
2018-08-09T01:39:07.705Z,66.66
2018-08-09T01:40:07.863Z,66.47
2018-08-09T01:41:07.527Z,66.47
2018-08-09T01:42:07.431Z,65.20
2018-08-09T01:43:07.341Z,64.14
2018-08-09T01:44:07.239Z,64.82
2018-08-09T01:45:07.147Z,64.34
2018-08-09T01:46:07.057Z,64.62
2018-08-09T01:47:06.965Z,64.24
2018-08-09T01:48:06.875Z,64.04
2018-08-09T01:49:06.784Z,64.43
2018-08-09T01:50:06.682Z,63.85
2018-08-09T01:51:06.591Z,63.37
2018-08-09T01:52:06.499Z,63.37
2018-08-09T01:53:06.409Z,62.79
2018-08-09T01:54:06.316Z,62.69
2018-08-09T01:55:06.228Z,62.30
2018-08-09T01:56:06.149Z,62.69
2018-08-09T01:57:06.046Z,62.01
2018-08-09T01:58:05.953Z,62.01
2018-08-09T01:59:05.850Z,62.11
2018-08-09T02:00:05.760Z,60.95
2018-08-09T02:01:05.669Z,60.57
2018-08-09T02:02:05.578Z,58.82
2018-08-09T02:03:05.491Z,57.34
2018-08-09T02:04:05.397Z,57.44
2018-08-09T02:05:05.390Z,56.57
2018-08-09T02:06:05.203Z,56.37
2018-08-09T02:07:05.112Z,55.21
2018-08-09T02:08:05.022Z,55.02
2018-08-09T02:09:04.932Z,55.11
2018-08-09T02:10:04.839Z,54.83
2018-08-09T02:11:04.749Z,53.57
2018-08-09T02:12:04.657Z,53.28
2018-08-09T02:13:04.555Z,53.28
2018-08-09T02:14:04.468Z,53.09
2018-08-09T02:15:04.373Z,50.84
2018-08-09T02:16:04.287Z,50.16
2018-08-09T02:17:04.191Z,49.77
2018-08-09T02:18:04.101Z,49.68
2018-08-09T02:19:04.009Z,49.87
2018-08-09T02:20:03.907Z,49.19
2018-08-09T02:21:03.821Z,48.81
2018-08-09T02:22:03.724Z,49.49
2018-08-09T02:23:03.685Z,49.10
2018-08-09T02:24:03.543Z,48.81
2018-08-09T02:25:03.708Z,47.94
2018-08-09T02:26:03.361Z,47.55
2018-08-09T02:27:03.258Z,47.65
2018-08-09T02:28:03.172Z,47.07
2018-08-09T02:29:03.076Z,47.36
2018-08-09T02:30:02.986Z,47.45
2018-08-09T02:31:02.894Z,47.26
2018-08-09T02:32:02.809Z,47.74
2018-08-09T02:33:02.701Z,47.36
2018-08-09T02:34:02.609Z,46.39
2018-08-09T02:35:02.532Z,47.07
2018-08-09T02:36:02.430Z,47.65
2018-08-09T02:37:02.338Z,46.68
2018-08-09T02:38:02.246Z,45.81
2018-08-09T02:39:02.147Z,46.58
2018-08-09T02:40:02.060Z,46.58
2018-08-09T02:41:01.963Z,46.39
2018-08-09T02:42:01.880Z,45.91
2018-08-09T02:43:01.780Z,45.81
2018-08-09T02:44:01.694Z,46.10
2018-08-09T02:45:01.588Z,46.30
2018-08-09T02:46:01.495Z,45.91
2018-08-09T02:47:01.408Z,45.52
2018-08-09T02:48:01.314Z,45.91
2018-08-09T02:49:01.225Z,45.81
2018-08-09T02:50:01.132Z,46.10
2018-08-09T02:51:01.030Z,44.94
2018-08-09T02:52:00.938Z,44.43
2018-08-09T02:53:00.847Z,44.34
2018-08-09T02:54:00.759Z,44.05
2018-08-09T02:55:00.675Z,43.95
2018-08-09T02:56:00.576Z,43.37
2018-08-09T02:57:00.472Z,42.79
2018-08-09T02:58:00.384Z,42.12
2018-08-09T02:59:00.291Z,41.73
2018-08-09T03:00:00.203Z,41.35
2018-08-09T03:01:00.109Z,41.93
2018-08-09T03:02:00.023Z,41.35
2018-08-09T03:02:59.914Z,42.60
2018-08-09T03:03:59.835Z,42.02
2018-08-09T03:04:59.732Z,41.54
2018-08-09T03:05:59.643Z,41.54
2018-08-09T03:06:59.552Z,41.73
2018-08-09T03:07:59.461Z,41.54
2018-08-09T03:08:59.361Z,41.25
2018-08-09T03:09:59.266Z,40.96
2018-08-09T03:10:59.176Z,41.05
2018-08-09T03:11:59.084Z,40.96
2018-08-09T03:12:58.994Z,40.96
2018-08-09T03:13:58.891Z,41.25
2018-08-09T03:14:58.799Z,40.57
2018-08-09T03:15:58.710Z,40.38
2018-08-09T03:16:58.617Z,40.28
2018-08-09T03:17:58.529Z,40.38
2018-08-09T03:18:58.435Z,39.80
2018-08-09T03:19:58.332Z,40.86
2018-08-09T03:20:58.243Z,39.80
2018-08-09T03:21:58.151Z,39.90
2018-08-09T03:22:58.061Z,39.90
2018-08-09T03:23:57.969Z,39.80
2018-08-09T03:24:58.115Z,39.99
2018-08-09T03:25:57.776Z,39.99
2018-08-09T03:26:57.684Z,39.12
2018-08-09T03:27:57.594Z,39.11
2018-08-09T03:28:57.502Z,39.11
2018-08-09T03:29:57.399Z,38.14
2018-08-09T03:30:57.309Z,37.56
2018-08-09T03:31:57.219Z,38.04
2018-08-09T03:32:57.127Z,38.23
2018-08-09T03:33:57.036Z,37.65
2018-08-09T03:34:56.934Z,37.85
2018-08-09T03:35:57.045Z,37.65
2018-08-09T03:36:56.751Z,38.33
2018-08-09T03:37:56.661Z,37.56
2018-08-09T03:38:56.569Z,37.65
2018-08-09T03:39:56.480Z,37.46
2018-08-09T03:40:56.376Z,37.75
2018-08-09T03:41:56.287Z,37.37
2018-08-09T03:42:56.194Z,37.46
2018-08-09T03:43:56.102Z,37.56
2018-08-09T03:44:56.001Z,37.27
2018-08-09T03:45:55.909Z,37.27
2018-08-09T03:46:55.817Z,37.17
2018-08-09T03:47:55.727Z,36.79
2018-08-09T03:48:55.636Z,37.37
2018-08-09T03:49:55.547Z,37.08
2018-08-09T03:50:55.444Z,37.27
2018-08-09T03:51:55.351Z,37.37
2018-08-09T03:52:55.261Z,37.17
2018-08-09T03:53:55.169Z,37.08
2018-08-09T03:54:55.080Z,37.17
2018-08-09T03:55:54.976Z,36.98
2018-08-09T03:56:54.885Z,37.56
2018-08-09T03:57:54.795Z,36.98
2018-08-09T03:58:54.703Z,37.17
2018-08-09T03:59:54.604Z,37.37
2018-08-09T04:00:54.510Z,37.46
2018-08-09T04:01:54.418Z,37.27
2018-08-09T04:02:54.328Z,37.65
2018-08-09T04:03:54.236Z,38.14
2018-08-09T04:04:54.148Z,37.65
2018-08-09T04:05:54.044Z,37.75
2018-08-09T04:06:53.961Z,37.85
2018-08-09T04:07:53.862Z,37.75
2018-08-09T04:08:53.771Z,38.33
2018-08-09T04:09:53.680Z,37.27
2018-08-09T04:10:53.577Z,38.54
2018-08-09T04:11:53.502Z,38.14
2018-08-09T04:12:53.395Z,38.53
2018-08-09T04:13:53.304Z,37.75
2018-08-09T04:14:53.214Z,39.03
2018-08-09T04:15:53.122Z,38.33
2018-08-09T04:16:53.019Z,39.41
2018-08-09T04:17:52.940Z,38.62
2018-08-09T04:18:52.837Z,39.11
2018-08-09T04:19:52.747Z,39.01
2018-08-09T04:20:52.668Z,39.61
2018-08-09T04:21:52.564Z,38.83
2018-08-09T04:22:52.462Z,39.41
2018-08-09T04:23:52.371Z,39.80
2018-08-09T04:24:52.280Z,39.99
2018-08-09T04:25:52.189Z,39.99
2018-08-09T04:26:52.087Z,39.51
2018-08-09T04:27:51.995Z,39.51
2018-08-09T04:28:51.904Z,40.09
2018-08-09T04:29:51.814Z,39.70
2018-08-09T04:30:51.722Z,40.28
2018-08-09T04:31:51.631Z,39.90
2018-08-09T04:32:51.531Z,40.47
2018-08-09T04:33:51.437Z,41.15
2018-08-09T04:34:51.349Z,42.02
2018-08-09T04:35:51.256Z,42.02
2018-08-09T04:36:51.165Z,43.59
2018-08-09T04:37:51.066Z,44.36
2018-08-09T04:38:50.971Z,45.81
2018-08-09T04:39:50.881Z,46.61
2018-08-09T04:40:50.789Z,45.62
2018-08-09T04:41:50.699Z,47.86
2018-08-09T04:42:50.608Z,48.35
2018-08-09T04:43:50.517Z,47.38
2018-08-09T04:44:50.414Z,47.19
2018-08-09T04:45:50.323Z,47.96
2018-08-09T04:46:50.233Z,48.27
2018-08-09T04:47:50.140Z,49.54
2018-08-09T04:48:50.051Z,52.34
2018-08-09T04:49:49.959Z,50.79
2018-08-09T04:50:49.857Z,51.56
2018-08-09T04:51:49.766Z,51.47
2018-08-09T04:52:49.674Z,52.05
2018-08-09T04:53:49.584Z,53.31
2018-08-09T04:54:49.492Z,53.31
2018-08-09T04:55:49.402Z,54.08
2018-08-09T04:56:49.310Z,54.30
2018-08-09T04:57:49.220Z,54.88
2018-08-09T04:58:49.129Z,55.07
2018-08-09T04:59:49.027Z,55.85
2018-08-09T05:00:48.943Z,57.40
2018-08-09T05:01:48.844Z,58.39
2018-08-09T05:02:48.755Z,57.30
2018-08-09T05:03:48.663Z,59.17
2018-08-09T05:04:48.573Z,59.84
2018-08-09T05:05:48.481Z,60.72
2018-08-09T05:06:48.392Z,61.21
2018-08-09T05:07:48.300Z,60.14
2018-08-09T05:08:48.209Z,61.79
2018-08-09T05:09:48.118Z,61.82
2018-08-09T05:10:48.029Z,62.10
2018-08-09T05:11:47.939Z,63.10
2018-08-09T05:12:47.846Z,63.30
2018-08-09T05:13:47.743Z,63.20
2018-08-09T05:14:47.652Z,63.10
2018-08-09T05:15:47.572Z,63.78
2018-08-09T05:16:47.470Z,64.65
2018-08-09T05:17:47.380Z,63.88
2018-08-09T05:18:47.288Z,63.98
2018-08-09T05:19:47.199Z,63.98
2018-08-09T05:20:47.107Z,63.69
2018-08-09T05:21:47.018Z,63.69
2018-08-09T05:22:46.926Z,64.59
2018-08-09T05:23:46.835Z,65.27
2018-08-09T05:24:46.743Z,64.78
2018-08-09T05:25:46.654Z,67.05
2018-08-09T05:26:46.562Z,66.63
2018-08-09T05:27:46.472Z,66.76
2018-08-09T05:28:46.380Z,66.89
2018-08-09T05:29:46.291Z,67.08
2018-08-09T05:30:46.202Z,67.05
2018-08-09T05:31:46.113Z,67.08
2018-08-09T05:32:46.019Z,66.66
2018-08-09T05:33:45.927Z,67.28
2018-08-09T05:34:45.837Z,67.96
2018-08-09T05:35:45.757Z,68.18
2018-08-09T05:36:45.655Z,68.22
2018-08-09T05:37:45.576Z,67.50
2018-08-09T05:38:45.486Z,67.99
2018-08-09T05:39:45.394Z,67.50
2018-08-09T05:40:45.304Z,67.50
2018-08-09T05:41:45.212Z,67.83
2018-08-09T05:42:45.123Z,68.60
2018-08-09T05:43:45.031Z,68.44
2018-08-09T05:44:45.191Z,68.51
2018-08-09T05:45:44.850Z,67.83
2018-08-09T05:46:44.759Z,68.05
2018-08-09T05:47:44.695Z,68.44
2018-08-09T05:48:44.578Z,68.44
2018-08-09T05:49:44.487Z,68.38
2018-08-09T05:50:44.407Z,68.60
2018-08-09T05:51:44.318Z,68.93
2018-08-09T05:52:44.282Z,68.84
2018-08-09T05:53:44.136Z,68.93
2018-08-09T05:54:44.044Z,68.54
2018-08-09T05:55:43.954Z,68.44
2018-08-09T05:56:43.863Z,68.64
2018-08-09T05:57:43.774Z,68.57
2018-08-09T05:58:43.695Z,68.57
2018-08-09T05:59:43.853Z,68.80
2018-08-09T06:00:43.513Z,68.29
2018-08-09T06:01:43.422Z,68.96
2018-08-09T06:02:43.330Z,68.64
2018-08-09T06:03:43.240Z,68.96
2018-08-09T06:04:43.162Z,68.67
2018-08-09T06:05:43.092Z,68.90
2018-08-09T06:06:42.979Z,68.61
2018-08-09T06:07:42.889Z,68.35
2018-08-09T06:08:42.801Z,68.55
2018-08-09T06:09:42.708Z,67.86
2018-08-09T06:10:42.629Z,67.96
2018-08-09T06:11:42.543Z,67.86
2018-08-09T06:12:42.449Z,67.86
2018-08-09T06:13:42.356Z,68.19
2018-08-09T06:14:42.267Z,67.70
2018-08-09T06:15:42.188Z,67.67
2018-08-09T06:16:42.096Z,67.93
2018-08-09T06:17:42.008Z,68.02
2018-08-09T06:18:41.920Z,68.41
2018-08-09T06:19:42.086Z,68.19
2018-08-09T06:20:41.748Z,68.74
2018-08-09T06:21:41.656Z,67.41
2018-08-09T06:22:41.566Z,67.60
2018-08-09T06:23:41.473Z,66.79
2018-08-09T06:24:41.397Z,67.54
2018-08-09T06:25:41.306Z,67.41
2018-08-09T06:26:41.223Z,67.50
2018-08-09T06:27:41.123Z,67.41
2018-08-09T06:28:41.085Z,67.38
2018-08-09T06:29:41.014Z,67.90
2018-08-09T06:30:40.863Z,67.64
2018-08-09T06:31:40.772Z,66.08
2018-08-09T06:32:40.692Z,66.17
2018-08-09T06:33:40.603Z,66.44
2018-08-09T06:34:40.512Z,67.05
2018-08-09T06:35:40.423Z,67.90
2018-08-09T06:36:40.344Z,67.93
2018-08-09T06:37:40.254Z,67.96
2018-08-09T06:38:40.162Z,67.54
2018-08-09T06:39:40.083Z,66.99
2018-08-09T06:40:39.992Z,66.69
2018-08-09T06:41:39.901Z,65.78
2018-08-09T06:42:39.827Z,64.61
2018-08-09T06:43:39.732Z,63.09
2018-08-09T06:44:39.641Z,64.87
2018-08-09T06:45:39.550Z,65.17
2018-08-09T06:46:39.460Z,65.36
2018-08-09T06:47:39.410Z,65.53
2018-08-09T06:48:39.290Z,66.17
2018-08-09T06:49:39.200Z,66.31
2018-08-09T06:50:39.122Z,65.26
2018-08-09T06:51:39.030Z,65.04
2018-08-09T06:52:38.940Z,63.51
2018-08-09T06:53:38.861Z,64.81
2018-08-09T06:54:38.770Z,63.83
2018-08-09T06:55:38.691Z,63.83
2018-08-09T06:56:38.601Z,62.76
2018-08-09T06:57:38.512Z,62.21
2018-08-09T06:58:38.425Z,62.66
2018-08-09T06:59:38.342Z,64.58
2018-08-09T07:00:38.250Z,63.15
2018-08-09T07:01:38.160Z,61.23
2018-08-09T07:02:38.082Z,60.57
2018-08-09T07:03:37.990Z,60.50
2018-08-09T07:04:37.912Z,59.14
2018-08-09T07:05:37.821Z,58.78
2018-08-09T07:06:37.730Z,57.21
2018-08-09T07:07:37.653Z,59.77
2018-08-09T07:08:37.561Z,63.02
2018-08-09T07:09:37.474Z,62.21
2018-08-09T07:10:37.397Z,60.41
2018-08-09T07:11:37.302Z,58.23
2018-08-09T07:12:37.226Z,60.91
2018-08-09T07:13:37.131Z,61.62
2018-08-09T07:14:37.053Z,60.64
2018-08-09T07:15:36.963Z,60.55
2018-08-09T07:16:36.872Z,64.32
2018-08-09T07:17:36.808Z,65.23
2018-08-09T07:18:36.704Z,64.00
2018-08-09T07:19:36.625Z,63.60
2018-08-09T07:20:36.536Z,63.44
2018-08-09T07:21:36.445Z,62.18
2018-08-09T07:22:36.365Z,60.57
2018-08-09T07:23:36.275Z,58.45
2018-08-09T07:24:36.184Z,57.97
2018-08-09T07:25:36.107Z,57.70
2018-08-09T07:26:36.014Z,57.53
2018-08-09T07:27:35.948Z,55.87
2018-08-09T07:28:35.848Z,57.04
2018-08-09T07:29:35.771Z,56.46
2018-08-09T07:30:35.676Z,57.50
2018-08-09T07:31:35.586Z,57.21
2018-08-09T07:32:35.508Z,58.91
2018-08-09T07:33:35.419Z,58.75
2018-08-09T07:34:35.337Z,59.04
2018-08-09T07:35:35.248Z,58.55
2018-08-09T07:36:35.207Z,58.16
2018-08-09T07:37:35.078Z,59.57
2018-08-09T07:38:35.000Z,62.37
2018-08-09T07:39:34.980Z,61.33
2018-08-09T07:40:34.818Z,62.27
2018-08-09T07:41:34.740Z,62.01
2018-08-09T07:42:34.650Z,61.52
2018-08-09T07:43:34.571Z,61.33
2018-08-09T07:44:34.483Z,61.06
2018-08-09T07:45:34.401Z,61.23
2018-08-09T07:46:34.312Z,60.80
2018-08-09T07:47:34.220Z,59.23
2018-08-09T07:48:34.237Z,59.40
2018-08-09T07:49:34.052Z,60.67
2018-08-09T07:50:33.973Z,60.05
2018-08-09T07:51:33.882Z,58.70
2018-08-09T07:52:33.791Z,58.09
2018-08-09T07:53:33.714Z,59.72
2018-08-09T07:54:33.621Z,61.55
2018-08-09T07:55:33.531Z,62.40
2018-08-09T07:56:33.453Z,62.50
2018-08-09T07:57:33.362Z,64.68
2018-08-09T07:58:33.272Z,65.46
2018-08-09T07:59:33.194Z,65.26
2018-08-09T08:00:33.102Z,65.04
2018-08-09T08:01:33.013Z,65.78
2018-08-09T08:02:32.920Z,66.63
2018-08-09T08:03:32.842Z,66.34
2018-08-09T08:04:32.752Z,66.93
2018-08-09T08:05:32.660Z,66.69
2018-08-09T08:06:32.570Z,66.53
2018-08-09T08:07:32.493Z,66.99
2018-08-09T08:08:32.494Z,67.28
2018-08-09T08:09:32.313Z,66.69
2018-08-09T08:10:32.219Z,67.05
2018-08-09T08:11:32.143Z,66.73
2018-08-09T08:12:32.051Z,67.25
2018-08-09T08:13:31.958Z,67.02
2018-08-09T08:14:31.869Z,67.35
2018-08-09T08:15:31.779Z,67.83
2018-08-09T08:16:31.688Z,67.63
2018-08-09T08:17:31.609Z,67.67
2018-08-09T08:18:31.519Z,67.18
2018-08-09T08:19:31.430Z,66.96
2018-08-09T08:20:31.335Z,66.73
2018-08-09T08:21:31.246Z,66.73
2018-08-09T08:22:31.155Z,67.63
2018-08-09T08:23:31.077Z,68.02
2018-08-09T08:24:30.986Z,67.57
2018-08-09T08:25:30.895Z,67.96
2018-08-09T08:26:30.808Z,66.76
2018-08-09T08:27:30.713Z,67.83
2018-08-09T08:28:30.627Z,67.63
2018-08-09T08:29:30.531Z,66.86
2018-08-09T08:30:30.454Z,67.21
2018-08-09T08:31:30.364Z,67.80
2018-08-09T08:32:30.271Z,67.63
2018-08-09T08:33:30.181Z,67.73
2018-08-09T08:34:30.111Z,68.22
2018-08-09T08:35:30.000Z,67.77
2018-08-09T08:36:29.908Z,67.18
2018-08-09T08:37:29.819Z,67.38
2018-08-09T08:38:29.740Z,67.99
2018-08-09T08:39:29.649Z,67.99
2018-08-09T08:40:29.558Z,67.80
2018-08-09T08:41:29.545Z,67.54
2018-08-09T08:42:29.378Z,67.47
2018-08-09T08:43:29.290Z,67.41
2018-08-09T08:44:29.195Z,67.02
2018-08-09T08:45:29.120Z,66.99
2018-08-09T08:46:29.038Z,67.71
2018-08-09T08:47:28.942Z,67.54
2018-08-09T08:48:28.845Z,66.76
2018-08-09T08:49:28.754Z,66.47
2018-08-09T08:50:28.664Z,66.83
2018-08-09T08:51:28.585Z,67.32
2018-08-09T08:52:28.494Z,66.96
2018-08-09T08:53:28.403Z,66.56
2018-08-09T08:54:28.313Z,67.22
2018-08-09T08:55:28.221Z,66.86
2018-08-09T08:56:28.131Z,67.35
2018-08-09T08:57:28.045Z,67.09
2018-08-09T08:58:27.960Z,66.63
2018-08-09T08:59:27.871Z,67.02
2018-08-09T09:00:27.781Z,66.44
2018-08-09T09:01:27.693Z,66.50
2018-08-09T09:02:27.601Z,65.52
2018-08-09T09:03:27.507Z,63.63
2018-08-09T09:04:27.528Z,62.38
2018-08-09T09:05:27.337Z,62.02
2018-08-09T09:06:27.256Z,62.45
2018-08-09T09:07:27.156Z,61.60
2018-08-09T09:08:27.066Z,61.90
2018-08-09T09:09:26.975Z,61.11
2018-08-09T09:10:26.884Z,61.60
2018-08-09T09:11:26.837Z,63.53
2018-08-09T09:12:26.714Z,64.90
2018-08-09T09:13:26.624Z,66.17
2018-08-09T09:14:26.532Z,65.88
2018-08-09T09:15:26.443Z,66.34
2018-08-09T09:16:26.364Z,66.66
2018-08-09T09:17:26.273Z,66.53
2018-08-09T09:18:26.183Z,66.56
2018-08-09T09:19:26.093Z,65.39
2018-08-09T09:20:26.013Z,65.16
2018-08-09T09:21:25.922Z,64.67
2018-08-09T09:22:25.833Z,64.77
2018-08-09T09:23:25.756Z,63.89
2018-08-09T09:24:25.663Z,63.43
2018-08-09T09:25:25.585Z,64.45
2018-08-09T09:26:25.493Z,64.74
2018-08-09T09:27:25.404Z,64.28
2018-08-09T09:28:25.325Z,64.97
2018-08-09T09:29:25.233Z,64.87
2018-08-09T09:30:25.155Z,63.46
2018-08-09T09:31:25.065Z,61.86
2018-08-09T09:32:24.987Z,58.19
2018-08-09T09:33:24.896Z,56.09
2018-08-09T09:34:24.817Z,55.23
2018-08-09T09:35:24.726Z,53.58
2018-08-09T09:36:24.648Z,54.44
2018-08-09T09:37:24.557Z,55.15
2018-08-09T09:38:24.478Z,58.55
2018-08-09T09:39:24.392Z,58.78
2018-08-09T09:40:24.310Z,57.67
2018-08-09T09:41:24.245Z,59.31
2018-08-09T09:42:24.140Z,59.94
2018-08-09T09:43:24.061Z,61.51
2018-08-09T09:44:23.971Z,61.80
2018-08-09T09:45:23.894Z,61.99
2018-08-09T09:46:23.814Z,63.04
2018-08-09T09:47:23.723Z,62.98
2018-08-09T09:48:23.645Z,60.88
2018-08-09T09:49:23.558Z,58.75
2018-08-09T09:50:23.479Z,58.87
2018-08-09T09:51:23.399Z,57.14
2018-08-09T09:52:23.307Z,55.89
2018-08-09T09:53:23.228Z,55.13
2018-08-09T09:54:23.225Z,56.92
2018-08-09T09:55:23.148Z,58.85
2018-08-09T09:56:23.069Z,58.36
2018-08-09T09:57:22.980Z,57.11
2018-08-09T09:58:22.900Z,57.93
2018-08-09T09:59:22.821Z,58.43
2018-08-09T10:00:22.731Z,59.38
2018-08-09T10:01:22.653Z,59.80
2018-08-09T10:02:22.574Z,58.19
2018-08-09T10:03:22.484Z,56.26
2018-08-09T10:04:22.405Z,55.33
2018-08-09T10:05:22.326Z,53.44
2018-08-09T10:06:22.237Z,54.81
2018-08-09T10:07:22.166Z,53.88
2018-08-09T10:08:22.079Z,52.43
2018-08-09T10:09:22.002Z,54.10
2018-08-09T10:10:21.931Z,54.91
2018-08-09T10:11:21.832Z,55.66
2018-08-09T10:12:21.753Z,55.60
2018-08-09T10:13:21.675Z,54.27
2018-08-09T10:14:21.584Z,52.38
2018-08-09T10:15:21.507Z,53.23
2018-08-09T10:16:21.429Z,52.28
2018-08-09T10:17:21.351Z,51.45
2018-08-09T10:18:21.258Z,51.25
2018-08-09T10:19:21.179Z,52.40
2018-08-09T10:20:21.101Z,53.68
2018-08-09T10:21:21.038Z,51.28
2018-08-09T10:22:20.945Z,50.54
2018-08-09T10:23:20.866Z,50.68
2018-08-09T10:24:20.777Z,50.88
2018-08-09T10:25:20.699Z,51.15
2018-08-09T10:26:20.623Z,51.93
2018-08-09T10:27:20.541Z,50.81
2018-08-09T10:28:20.463Z,50.14
2018-08-09T10:29:20.384Z,49.28
2018-08-09T10:30:20.306Z,48.88
2018-08-09T10:31:20.231Z,48.04
2018-08-09T10:32:20.139Z,47.60
2018-08-09T10:33:20.060Z,49.11
2018-08-09T10:34:19.981Z,50.95
2018-08-09T10:35:19.902Z,49.97
2018-08-09T10:36:19.824Z,48.83
2018-08-09T10:37:19.746Z,49.30
2018-08-09T10:38:19.669Z,49.06
2018-08-09T10:39:19.591Z,48.57
2018-08-09T10:40:19.510Z,47.50
2018-08-09T10:41:19.432Z,47.70
2018-08-09T10:42:19.356Z,48.12
2018-08-09T10:43:19.275Z,46.94
2018-08-09T10:44:19.199Z,46.17
2018-08-09T10:45:19.119Z,46.17
2018-08-09T10:46:19.041Z,47.23
2018-08-09T10:47:18.962Z,46.86
2018-08-09T10:48:18.886Z,46.01
2018-08-09T10:49:18.807Z,46.01
2018-08-09T10:50:18.734Z,44.28
2018-08-09T10:51:18.651Z,45.53
2018-08-09T10:52:18.573Z,46.34
2018-08-09T10:53:18.505Z,46.04
2018-08-09T10:54:18.431Z,45.95
2018-08-09T10:55:18.355Z,47.09
2018-08-09T10:56:18.273Z,46.15
2018-08-09T10:57:18.192Z,44.71
2018-08-09T10:58:18.114Z,44.71
2018-08-09T10:59:18.289Z,44.22
2018-08-09T11:00:17.959Z,45.04
2018-08-09T11:01:17.880Z,46.26
2018-08-09T11:02:17.802Z,45.97
2018-08-09T11:03:17.728Z,45.38
2018-08-09T11:04:17.648Z,44.83
2018-08-09T11:05:17.566Z,45.95
2018-08-09T11:06:17.489Z,46.40
2018-08-09T11:07:17.411Z,47.31
2018-08-09T11:08:17.331Z,45.34
2018-08-09T11:09:17.253Z,45.46
2018-08-09T11:10:17.175Z,44.59
2018-08-09T11:11:17.096Z,44.10
2018-08-09T11:12:17.018Z,43.57
2018-08-09T11:13:16.940Z,42.80
2018-08-09T11:14:16.862Z,42.03
2018-08-09T11:15:16.794Z,42.13
2018-08-09T11:16:16.705Z,42.68
2018-08-09T11:17:16.627Z,43.60
2018-08-09T11:18:16.549Z,45.61
2018-08-09T11:19:16.724Z,46.67
2018-08-09T11:20:16.391Z,48.22
2018-08-09T11:21:16.313Z,48.42
2018-08-09T11:22:16.234Z,46.47
2018-08-09T11:23:16.158Z,47.09
2018-08-09T11:24:16.078Z,47.19
2018-08-09T11:25:16.000Z,48.07
2018-08-09T11:26:15.921Z,47.21
2018-08-09T11:27:15.844Z,45.93
2018-08-09T11:28:15.765Z,45.90
2018-08-09T11:29:15.686Z,46.72
2018-08-09T11:30:15.608Z,47.46
2018-08-09T11:31:15.442Z,48.65
2018-08-09T11:32:15.451Z,50.46
2018-08-09T11:33:15.285Z,52.18
2018-08-09T11:34:15.210Z,53.53
2018-08-09T11:35:15.130Z,52.35
2018-08-09T11:36:15.051Z,53.53
2018-08-09T11:37:14.974Z,53.72
2018-08-09T11:38:14.894Z,54.58
2018-08-09T11:39:14.803Z,55.16
2018-08-09T11:40:14.725Z,55.26
2018-08-09T11:41:14.647Z,55.16
2018-08-09T11:42:14.567Z,55.56
2018-08-09T11:43:14.478Z,56.96
2018-08-09T11:44:14.400Z,55.39
2018-08-09T11:45:14.322Z,55.49
2018-08-09T11:46:14.230Z,56.63
2018-08-09T11:47:14.150Z,57.52
2018-08-09T11:48:14.074Z,55.95
2018-08-09T11:49:14.008Z,56.61
2018-08-09T11:50:13.905Z,57.10
2018-08-09T11:51:13.814Z,56.90
2018-08-09T11:52:13.735Z,57.88
2018-08-09T11:53:13.649Z,56.90
2018-08-09T11:54:13.566Z,56.93
2018-08-09T11:55:13.478Z,55.66
2018-08-09T11:56:13.418Z,55.95
2018-08-09T11:57:13.313Z,55.10
2018-08-09T11:58:13.228Z,55.56
2018-08-09T11:59:13.136Z,56.44
2018-08-09T12:00:13.071Z,56.71
2018-08-09T12:01:12.968Z,57.49
2018-08-09T12:02:12.890Z,57.39
2018-08-09T12:03:12.810Z,57.56
2018-08-09T12:04:12.712Z,58.86
2018-08-09T12:05:12.633Z,57.49
2018-08-09T12:06:12.538Z,56.81
2018-08-09T12:07:12.490Z,56.71
2018-08-09T12:08:12.370Z,55.56
2018-08-09T12:09:12.278Z,54.33
2018-08-09T12:10:12.200Z,54.24
2018-08-09T12:11:12.111Z,54.33
2018-08-09T12:12:12.019Z,53.94
2018-08-09T12:13:11.940Z,54.33
2018-08-09T12:14:11.851Z,54.24
2018-08-09T12:15:11.795Z,54.17
2018-08-09T12:16:11.683Z,53.75
2018-08-09T12:17:11.590Z,52.57
2018-08-09T12:18:11.501Z,53.45
2018-08-09T12:19:11.421Z,54.04
2018-08-09T12:20:11.331Z,55.10
2018-08-09T12:21:11.253Z,55.39
2018-08-09T12:22:11.160Z,54.80
2018-08-09T12:23:11.082Z,54.63
2018-08-09T12:24:10.991Z,54.14
2018-08-09T12:25:10.914Z,54.80
2018-08-09T12:26:10.822Z,55.39
2018-08-09T12:27:10.743Z,56.17
2018-08-09T12:28:10.653Z,55.58
2018-08-09T12:29:10.575Z,56.57
2018-08-09T12:30:10.484Z,55.29
2018-08-09T12:31:10.406Z,54.60
2018-08-09T12:32:10.315Z,55.19
2018-08-09T12:33:10.247Z,55.49
2018-08-09T12:34:10.148Z,55.19
2018-08-09T12:35:10.068Z,55.19
2018-08-09T12:36:09.977Z,55.39
2018-08-09T12:37:09.899Z,54.02
2018-08-09T12:38:09.808Z,54.41
2018-08-09T12:39:09.717Z,54.14
2018-08-09T12:40:09.639Z,54.24
2018-08-09T12:41:09.548Z,53.55
2018-08-09T12:42:09.468Z,52.57
2018-08-09T12:43:09.379Z,52.67
2018-08-09T12:44:09.287Z,53.65
2018-08-09T12:45:09.224Z,54.11
2018-08-09T12:46:09.118Z,54.21
2018-08-09T12:47:09.039Z,54.31
2018-08-09T12:48:08.948Z,54.11
2018-08-09T12:49:08.860Z,53.43
2018-08-09T12:50:08.780Z,53.43
2018-08-09T12:51:08.688Z,54.58